sensor_id;sensor_type;location;lat;lon;timestamp;temperature;humidity
5358;DHT22;2702;51.014;7.170;2022-08-19T00:00:27;20.80;99.90
5358;DHT22;2702;51.014;7.170;2022-08-19T00:02:53;20.80;99.90
5358;DHT22;2702;51.014;7.170;2022-08-19T00:05:20;20.80;99.90
5358;DHT22;2702;51.014;7.170;2022-08-19T00:07:46;20.70;99.90
5358;DHT22;2702;51.014;7.170;2022-08-19T00:10:14;20.60;99.90
5358;DHT22;2702;51.014;7.170;2022-08-19T00:12:40;20.60;99.90
5358;DHT22;2702;51.014;7.170;2022-08-19T00:15:13;20.60;99.90
5358;DHT22;2702;51.014;7.170;2022-08-19T00:17:42;20.60;99.90
5358;DHT22;2702;51.014;7.170;2022-08-19T00:20:11;20.60;99.90
5358;DHT22;2702;51.014;7.170;2022-08-19T00:22:38;20.60;99.90
5358;DHT22;2702;51.014;7.170;2022-08-19T00:25:06;20.50;99.90
5358;DHT22;2702;51.014;7.170;2022-08-19T00:27:33;20.50;99.90
5358;DHT22;2702;51.014;7.170;2022-08-19T00:29:59;20.50;99.90
5358;DHT22;2702;51.014;7.170;2022-08-19T00:32:25;20.40;99.90
5358;DHT22;2702;51.014;7.170;2022-08-19T00:34:52;20.30;99.90
5358;DHT22;2702;51.014;7.170;2022-08-19T00:37:19;20.20;99.90
5358;DHT22;2702;51.014;7.170;2022-08-19T00:39:48;20.10;99.90
5358;DHT22;2702;51.014;7.170;2022-08-19T00:42:14;20.00;99.90
5358;DHT22;2702;51.014;7.170;2022-08-19T00:44:41;19.90;99.90
5358;DHT22;2702;51.014;7.170;2022-08-19T00:47:08;20.00;99.90
5358;DHT22;2702;51.014;7.170;2022-08-19T00:49:37;19.90;99.90
5358;DHT22;2702;51.014;7.170;2022-08-19T00:52:15;19.90;99.90
5358;DHT22;2702;51.014;7.170;2022-08-19T00:54:43;19.90;99.90
5358;DHT22;2702;51.014;7.170;2022-08-19T00:57:15;19.90;99.90
5358;DHT22;2702;51.014;7.170;2022-08-19T00:59:46;20.00;99.90
5358;DHT22;2702;51.014;7.170;2022-08-19T01:02:14;20.00;99.90
5358;DHT22;2702;51.014;7.170;2022-08-19T01:04:40;20.10;99.90
5358;DHT22;2702;51.014;7.170;2022-08-19T01:07:07;20.10;99.90
5358;DHT22;2702;51.014;7.170;2022-08-19T01:09:33;20.10;99.90
5358;DHT22;2702;51.014;7.170;2022-08-19T01:12:00;20.10;99.90
5358;DHT22;2702;51.014;7.170;2022-08-19T01:14:26;20.10;99.90
5358;DHT22;2702;51.014;7.170;2022-08-19T01:16:54;20.10;99.90
5358;DHT22;2702;51.014;7.170;2022-08-19T01:19:30;20.10;99.90
5358;DHT22;2702;51.014;7.170;2022-08-19T01:24:50;20.10;99.90
5358;DHT22;2702;51.014;7.170;2022-08-19T01:27:17;20.10;99.90
5358;DHT22;2702;51.014;7.170;2022-08-19T01:29:44;20.10;99.90
5358;DHT22;2702;51.014;7.170;2022-08-19T01:32:15;20.10;99.90
5358;DHT22;2702;51.014;7.170;2022-08-19T01:34:41;20.00;99.90
5358;DHT22;2702;51.014;7.170;2022-08-19T01:37:14;20.10;99.90
5358;DHT22;2702;51.014;7.170;2022-08-19T01:39:40;20.00;99.90
5358;DHT22;2702;51.014;7.170;2022-08-19T01:42:08;20.00;99.90
5358;DHT22;2702;51.014;7.170;2022-08-19T01:44:35;19.90;99.90
5358;DHT22;2702;51.014;7.170;2022-08-19T01:47:02;20.00;99.90
5358;DHT22;2702;51.014;7.170;2022-08-19T01:49:29;19.90;99.90
5358;DHT22;2702;51.014;7.170;2022-08-19T01:51:55;19.90;99.90
5358;DHT22;2702;51.014;7.170;2022-08-19T01:54:24;20.00;99.90
5358;DHT22;2702;51.014;7.170;2022-08-19T01:56:58;20.00;99.90
5358;DHT22;2702;51.014;7.170;2022-08-19T01:59:25;20.00;99.90
5358;DHT22;2702;51.014;7.170;2022-08-19T02:01:51;19.90;99.90
5358;DHT22;2702;51.014;7.170;2022-08-19T02:04:17;19.90;99.90
5358;DHT22;2702;51.014;7.170;2022-08-19T02:06:44;19.90;99.90
5358;DHT22;2702;51.014;7.170;2022-08-19T02:09:10;19.90;99.90
5358;DHT22;2702;51.014;7.170;2022-08-19T02:11:36;19.80;99.90
5358;DHT22;2702;51.014;7.170;2022-08-19T02:14:05;19.80;99.90
5358;DHT22;2702;51.014;7.170;2022-08-19T02:16:32;19.80;99.90
5358;DHT22;2702;51.014;7.170;2022-08-19T02:18:59;19.70;99.90
5358;DHT22;2702;51.014;7.170;2022-08-19T02:21:26;19.50;99.90
5358;DHT22;2702;51.014;7.170;2022-08-19T02:23:52;19.30;99.90
5358;DHT22;2702;51.014;7.170;2022-08-19T02:26:19;19.30;99.90
5358;DHT22;2702;51.014;7.170;2022-08-19T02:28:45;19.20;99.90
5358;DHT22;2702;51.014;7.170;2022-08-19T02:31:13;19.20;99.90
5358;DHT22;2702;51.014;7.170;2022-08-19T02:33:40;19.30;99.90
5358;DHT22;2702;51.014;7.170;2022-08-19T02:36:07;19.30;99.90
5358;DHT22;2702;51.014;7.170;2022-08-19T02:38:34;19.30;99.90
5358;DHT22;2702;51.014;7.170;2022-08-19T02:41:05;19.30;99.90
5358;DHT22;2702;51.014;7.170;2022-08-19T02:43:33;19.40;99.90
5358;DHT22;2702;51.014;7.170;2022-08-19T02:46:11;19.40;99.90
5358;DHT22;2702;51.014;7.170;2022-08-19T02:48:38;19.30;99.90
5358;DHT22;2702;51.014;7.170;2022-08-19T02:51:04;19.30;99.90
5358;DHT22;2702;51.014;7.170;2022-08-19T02:53:31;19.30;99.90
5358;DHT22;2702;51.014;7.170;2022-08-19T02:55:57;19.30;99.90
5358;DHT22;2702;51.014;7.170;2022-08-19T02:58:23;19.30;99.90
5358;DHT22;2702;51.014;7.170;2022-08-19T03:00:52;19.30;99.90
5358;DHT22;2702;51.014;7.170;2022-08-19T03:03:20;19.20;99.90
5358;DHT22;2702;51.014;7.170;2022-08-19T03:05:47;19.20;99.90
5358;DHT22;2702;51.014;7.170;2022-08-19T03:08:13;19.20;99.90
5358;DHT22;2702;51.014;7.170;2022-08-19T03:10:44;19.10;99.90
5358;DHT22;2702;51.014;7.170;2022-08-19T03:13:17;19.10;99.90
5358;DHT22;2702;51.014;7.170;2022-08-19T03:15:45;19.00;99.90
5358;DHT22;2702;51.014;7.170;2022-08-19T03:18:12;19.00;99.90
5358;DHT22;2702;51.014;7.170;2022-08-19T03:20:48;19.00;99.90
5358;DHT22;2702;51.014;7.170;2022-08-19T03:23:16;19.10;99.90
5358;DHT22;2702;51.014;7.170;2022-08-19T03:25:46;19.10;99.90
5358;DHT22;2702;51.014;7.170;2022-08-19T03:28:15;19.10;99.90
5358;DHT22;2702;51.014;7.170;2022-08-19T03:30:43;19.10;99.90
5358;DHT22;2702;51.014;7.170;2022-08-19T03:33:22;19.00;99.90
5358;DHT22;2702;51.014;7.170;2022-08-19T03:38:36;19.00;99.90
5358;DHT22;2702;51.014;7.170;2022-08-19T03:41:07;19.00;99.90
5358;DHT22;2702;51.014;7.170;2022-08-19T03:43:39;18.90;99.90
5358;DHT22;2702;51.014;7.170;2022-08-19T03:46:12;18.90;99.90
5358;DHT22;2702;51.014;7.170;2022-08-19T03:48:40;18.90;99.90
5358;DHT22;2702;51.014;7.170;2022-08-19T03:51:07;18.80;99.90
5358;DHT22;2702;51.014;7.170;2022-08-19T03:53:35;18.70;99.90
5358;DHT22;2702;51.014;7.170;2022-08-19T03:56:01;18.70;99.90
5358;DHT22;2702;51.014;7.170;2022-08-19T03:58:29;18.60;99.90
5358;DHT22;2702;51.014;7.170;2022-08-19T04:00:56;18.50;99.90
5358;DHT22;2702;51.014;7.170;2022-08-19T04:03:24;18.60;99.90
5358;DHT22;2702;51.014;7.170;2022-08-19T04:05:50;18.50;99.90
5358;DHT22;2702;51.014;7.170;2022-08-19T04:08:16;18.40;99.90
5358;DHT22;2702;51.014;7.170;2022-08-19T04:10:48;18.40;99.90
5358;DHT22;2702;51.014;7.170;2022-08-19T04:13:17;18.40;99.90
5358;DHT22;2702;51.014;7.170;2022-08-19T04:15:45;18.40;99.90
5358;DHT22;2702;51.014;7.170;2022-08-19T04:18:12;18.40;99.90
5358;DHT22;2702;51.014;7.170;2022-08-19T04:20:44;18.40;99.90
5358;DHT22;2702;51.014;7.170;2022-08-19T04:23:11;18.50;99.90
5358;DHT22;2702;51.014;7.170;2022-08-19T04:25:40;18.50;99.90
5358;DHT22;2702;51.014;7.170;2022-08-19T04:28:08;18.50;99.90
5358;DHT22;2702;51.014;7.170;2022-08-19T04:30:44;18.50;99.90
5358;DHT22;2702;51.014;7.170;2022-08-19T04:33:11;18.50;99.90
5358;DHT22;2702;51.014;7.170;2022-08-19T04:35:43;18.60;99.90
5358;DHT22;2702;51.014;7.170;2022-08-19T04:38:10;18.70;99.90
5358;DHT22;2702;51.014;7.170;2022-08-19T04:40:41;18.70;99.90
5358;DHT22;2702;51.014;7.170;2022-08-19T04:43:27;18.70;99.90
5358;DHT22;2702;51.014;7.170;2022-08-19T04:45:53;18.70;99.90
5358;DHT22;2702;51.014;7.170;2022-08-19T04:48:19;18.70;99.90
5358;DHT22;2702;51.014;7.170;2022-08-19T04:50:52;18.70;99.90
5358;DHT22;2702;51.014;7.170;2022-08-19T04:53:27;18.80;99.90
5358;DHT22;2702;51.014;7.170;2022-08-19T04:55:58;18.80;99.90
5358;DHT22;2702;51.014;7.170;2022-08-19T04:58:26;18.80;99.90
5358;DHT22;2702;51.014;7.170;2022-08-19T05:00:53;18.80;99.90
5358;DHT22;2702;51.014;7.170;2022-08-19T05:03:20;18.70;99.90
5358;DHT22;2702;51.014;7.170;2022-08-19T05:05:48;18.60;99.90
5358;DHT22;2702;51.014;7.170;2022-08-19T05:08:19;18.50;99.90
5358;DHT22;2702;51.014;7.170;2022-08-19T05:10:50;18.60;99.90
5358;DHT22;2702;51.014;7.170;2022-08-19T05:13:18;18.60;99.90
5358;DHT22;2702;51.014;7.170;2022-08-19T05:15:53;18.50;99.90
5358;DHT22;2702;51.014;7.170;2022-08-19T05:18:19;18.50;99.90
5358;DHT22;2702;51.014;7.170;2022-08-19T05:21:13;18.60;99.90
5358;DHT22;2702;51.014;7.170;2022-08-19T05:23:58;18.70;99.90
5358;DHT22;2702;51.014;7.170;2022-08-19T05:26:25;18.70;99.90
5358;DHT22;2702;51.014;7.170;2022-08-19T05:28:55;18.80;99.90
5358;DHT22;2702;51.014;7.170;2022-08-19T05:31:21;18.90;99.90
5358;DHT22;2702;51.014;7.170;2022-08-19T05:33:48;18.90;99.90
5358;DHT22;2702;51.014;7.170;2022-08-19T05:36:15;19.00;99.90
5358;DHT22;2702;51.014;7.170;2022-08-19T05:38:41;19.00;99.90
5358;DHT22;2702;51.014;7.170;2022-08-19T05:41:13;19.00;99.90
5358;DHT22;2702;51.014;7.170;2022-08-19T05:43:40;19.00;99.90
5358;DHT22;2702;51.014;7.170;2022-08-19T05:46:07;18.90;99.90
5358;DHT22;2702;51.014;7.170;2022-08-19T05:48:35;18.90;99.90
5358;DHT22;2702;51.014;7.170;2022-08-19T05:51:07;18.80;99.90
5358;DHT22;2702;51.014;7.170;2022-08-19T05:53:34;18.70;99.90
5358;DHT22;2702;51.014;7.170;2022-08-19T05:56:05;18.40;99.90
5358;DHT22;2702;51.014;7.170;2022-08-19T05:58:32;18.30;99.90
5358;DHT22;2702;51.014;7.170;2022-08-19T06:00:59;18.30;99.90
5358;DHT22;2702;51.014;7.170;2022-08-19T06:03:33;18.10;99.90
5358;DHT22;2702;51.014;7.170;2022-08-19T06:06:00;18.10;99.90
5358;DHT22;2702;51.014;7.170;2022-08-19T06:08:26;18.10;99.90
5358;DHT22;2702;51.014;7.170;2022-08-19T06:10:53;18.10;99.90
5358;DHT22;2702;51.014;7.170;2022-08-19T06:13:19;18.20;99.90
5358;DHT22;2702;51.014;7.170;2022-08-19T06:15:45;18.20;99.90
5358;DHT22;2702;51.014;7.170;2022-08-19T06:18:15;18.20;99.90
5358;DHT22;2702;51.014;7.170;2022-08-19T06:20:42;18.10;99.90
5358;DHT22;2702;51.014;7.170;2022-08-19T06:23:09;18.00;99.90
5358;DHT22;2702;51.014;7.170;2022-08-19T06:25:35;18.00;99.90
5358;DHT22;2702;51.014;7.170;2022-08-19T06:28:02;18.00;99.90
5358;DHT22;2702;51.014;7.170;2022-08-19T06:30:28;18.10;99.90
5358;DHT22;2702;51.014;7.170;2022-08-19T06:32:54;18.10;99.90
5358;DHT22;2702;51.014;7.170;2022-08-19T06:35:20;18.10;99.90
5358;DHT22;2702;51.014;7.170;2022-08-19T06:37:46;18.20;99.90
5358;DHT22;2702;51.014;7.170;2022-08-19T06:40:12;18.30;99.90
5358;DHT22;2702;51.014;7.170;2022-08-19T06:42:39;18.30;99.90
5358;DHT22;2702;51.014;7.170;2022-08-19T06:45:06;18.40;99.90
5358;DHT22;2702;51.014;7.170;2022-08-19T06:47:34;18.60;99.90
5358;DHT22;2702;51.014;7.170;2022-08-19T06:50:00;18.70;99.90
5358;DHT22;2702;51.014;7.170;2022-08-19T06:52:32;18.90;99.90
5358;DHT22;2702;51.014;7.170;2022-08-19T06:55:00;18.90;99.90
5358;DHT22;2702;51.014;7.170;2022-08-19T06:57:27;19.00;99.90
5358;DHT22;2702;51.014;7.170;2022-08-19T06:59:54;19.00;99.90
5358;DHT22;2702;51.014;7.170;2022-08-19T07:02:21;19.10;99.90
5358;DHT22;2702;51.014;7.170;2022-08-19T07:04:52;19.20;99.90
5358;DHT22;2702;51.014;7.170;2022-08-19T07:07:20;19.30;99.90
5358;DHT22;2702;51.014;7.170;2022-08-19T07:09:47;19.30;99.90
5358;DHT22;2702;51.014;7.170;2022-08-19T07:12:14;19.50;99.90
5358;DHT22;2702;51.014;7.170;2022-08-19T07:14:41;19.60;99.90
5358;DHT22;2702;51.014;7.170;2022-08-19T07:17:09;19.70;99.90
5358;DHT22;2702;51.014;7.170;2022-08-19T07:19:37;19.80;99.90
5358;DHT22;2702;51.014;7.170;2022-08-19T07:22:05;19.90;99.90
5358;DHT22;2702;51.014;7.170;2022-08-19T07:24:32;20.00;99.90
5358;DHT22;2702;51.014;7.170;2022-08-19T07:27:00;20.00;99.90
5358;DHT22;2702;51.014;7.170;2022-08-19T07:29:29;20.10;99.90
5358;DHT22;2702;51.014;7.170;2022-08-19T07:31:56;20.10;99.90
5358;DHT22;2702;51.014;7.170;2022-08-19T07:34:24;20.10;99.90
5358;DHT22;2702;51.014;7.170;2022-08-19T07:36:51;20.20;99.90
5358;DHT22;2702;51.014;7.170;2022-08-19T07:39:27;20.40;99.90
5358;DHT22;2702;51.014;7.170;2022-08-19T07:41:54;20.50;99.90
5358;DHT22;2702;51.014;7.170;2022-08-19T07:44:21;20.70;99.90
5358;DHT22;2702;51.014;7.170;2022-08-19T07:46:51;20.60;99.90
5358;DHT22;2702;51.014;7.170;2022-08-19T07:49:19;20.70;99.90
5358;DHT22;2702;51.014;7.170;2022-08-19T07:51:48;20.80;99.90
5358;DHT22;2702;51.014;7.170;2022-08-19T07:54:14;20.90;99.90
5358;DHT22;2702;51.014;7.170;2022-08-19T07:56:41;21.20;99.90
5358;DHT22;2702;51.014;7.170;2022-08-19T07:59:07;21.40;99.90
5358;DHT22;2702;51.014;7.170;2022-08-19T08:01:35;21.20;99.90
5358;DHT22;2702;51.014;7.170;2022-08-19T08:04:01;21.40;99.90
5358;DHT22;2702;51.014;7.170;2022-08-19T08:06:46;21.40;99.90
5358;DHT22;2702;51.014;7.170;2022-08-19T08:09:36;21.50;99.90
5358;DHT22;2702;51.014;7.170;2022-08-19T08:14:43;21.50;99.90
5358;DHT22;2702;51.014;7.170;2022-08-19T08:17:10;21.60;99.90
5358;DHT22;2702;51.014;7.170;2022-08-19T08:19:38;21.70;99.90
5358;DHT22;2702;51.014;7.170;2022-08-19T08:22:07;21.60;99.90
5358;DHT22;2702;51.014;7.170;2022-08-19T08:24:33;21.80;99.90
5358;DHT22;2702;51.014;7.170;2022-08-19T08:27:01;21.90;99.90
5358;DHT22;2702;51.014;7.170;2022-08-19T08:29:30;21.80;99.90
5358;DHT22;2702;51.014;7.170;2022-08-19T08:31:56;21.70;99.90
5358;DHT22;2702;51.014;7.170;2022-08-19T08:34:23;21.70;99.90
5358;DHT22;2702;51.014;7.170;2022-08-19T08:36:49;21.60;99.90
5358;DHT22;2702;51.014;7.170;2022-08-19T08:39:19;21.70;99.90
5358;DHT22;2702;51.014;7.170;2022-08-19T08:44:49;21.80;99.90
5358;DHT22;2702;51.014;7.170;2022-08-19T08:47:19;22.10;99.90
5358;DHT22;2702;51.014;7.170;2022-08-19T08:49:51;22.30;99.90
5358;DHT22;2702;51.014;7.170;2022-08-19T08:54:52;22.20;99.90
5358;DHT22;2702;51.014;7.170;2022-08-19T08:57:38;22.50;99.90
5358;DHT22;2702;51.014;7.170;2022-08-19T09:00:09;22.30;99.90
5358;DHT22;2702;51.014;7.170;2022-08-19T09:02:36;22.30;99.90
5358;DHT22;2702;51.014;7.170;2022-08-19T09:05:03;22.30;99.90
5358;DHT22;2702;51.014;7.170;2022-08-19T09:10:29;22.20;99.90
5358;DHT22;2702;51.014;7.170;2022-08-19T09:16:11;22.60;99.90
5358;DHT22;2702;51.014;7.170;2022-08-19T09:19:00;22.50;99.90
5358;DHT22;2702;51.014;7.170;2022-08-19T09:21:26;22.20;99.90
5358;DHT22;2702;51.014;7.170;2022-08-19T09:23:53;22.20;99.90
5358;DHT22;2702;51.014;7.170;2022-08-19T09:26:22;22.30;99.90
5358;DHT22;2702;51.014;7.170;2022-08-19T09:28:50;22.40;99.90
5358;DHT22;2702;51.014;7.170;2022-08-19T09:31:21;22.50;99.90
5358;DHT22;2702;51.014;7.170;2022-08-19T09:33:48;22.50;99.90
5358;DHT22;2702;51.014;7.170;2022-08-19T09:36:18;22.80;99.90
5358;DHT22;2702;51.014;7.170;2022-08-19T09:38:45;22.80;99.90
5358;DHT22;2702;51.014;7.170;2022-08-19T09:41:22;23.10;99.90
5358;DHT22;2702;51.014;7.170;2022-08-19T09:43:51;23.60;99.90
5358;DHT22;2702;51.014;7.170;2022-08-19T09:46:19;23.80;99.90
5358;DHT22;2702;51.014;7.170;2022-08-19T09:48:47;23.70;99.90
5358;DHT22;2702;51.014;7.170;2022-08-19T09:51:21;23.90;99.90
5358;DHT22;2702;51.014;7.170;2022-08-19T09:53:49;24.10;99.90
5358;DHT22;2702;51.014;7.170;2022-08-19T09:56:21;24.20;99.90
5358;DHT22;2702;51.014;7.170;2022-08-19T09:58:47;24.30;99.90
5358;DHT22;2702;51.014;7.170;2022-08-19T10:01:21;24.30;99.90
5358;DHT22;2702;51.014;7.170;2022-08-19T10:03:54;24.30;99.90
5358;DHT22;2702;51.014;7.170;2022-08-19T10:06:22;24.20;99.90
5358;DHT22;2702;51.014;7.170;2022-08-19T10:08:48;24.00;99.90
5358;DHT22;2702;51.014;7.170;2022-08-19T10:11:15;24.40;99.90
5358;DHT22;2702;51.014;7.170;2022-08-19T10:13:43;24.70;99.90
5358;DHT22;2702;51.014;7.170;2022-08-19T10:16:12;24.80;99.90
5358;DHT22;2702;51.014;7.170;2022-08-19T10:18:39;24.70;99.90
5358;DHT22;2702;51.014;7.170;2022-08-19T10:21:15;25.00;99.90
5358;DHT22;2702;51.014;7.170;2022-08-19T10:23:44;24.90;99.90
5358;DHT22;2702;51.014;7.170;2022-08-19T10:26:12;25.00;99.90
5358;DHT22;2702;51.014;7.170;2022-08-19T10:28:39;25.10;99.90
5358;DHT22;2702;51.014;7.170;2022-08-19T10:31:08;25.10;99.90
5358;DHT22;2702;51.014;7.170;2022-08-19T10:33:36;24.70;99.90
5358;DHT22;2702;51.014;7.170;2022-08-19T10:36:06;24.60;99.90
5358;DHT22;2702;51.014;7.170;2022-08-19T10:38:33;24.70;99.90
5358;DHT22;2702;51.014;7.170;2022-08-19T10:41:17;25.00;99.90
5358;DHT22;2702;51.014;7.170;2022-08-19T10:43:43;25.20;99.90
5358;DHT22;2702;51.014;7.170;2022-08-19T10:46:13;24.80;99.90
5358;DHT22;2702;51.014;7.170;2022-08-19T10:48:40;24.60;99.90
5358;DHT22;2702;51.014;7.170;2022-08-19T10:51:06;24.70;99.90
5358;DHT22;2702;51.014;7.170;2022-08-19T10:53:51;24.90;99.90
5358;DHT22;2702;51.014;7.170;2022-08-19T10:56:18;24.70;99.90
5358;DHT22;2702;51.014;7.170;2022-08-19T10:59:04;24.70;99.90
5358;DHT22;2702;51.014;7.170;2022-08-19T11:01:32;24.90;99.90
5358;DHT22;2702;51.014;7.170;2022-08-19T11:04:03;25.00;99.90
5358;DHT22;2702;51.014;7.170;2022-08-19T11:06:31;25.10;99.90
5358;DHT22;2702;51.014;7.170;2022-08-19T11:08:58;24.90;99.90
5358;DHT22;2702;51.014;7.170;2022-08-19T11:11:26;24.60;99.90
5358;DHT22;2702;51.014;7.170;2022-08-19T11:13:52;24.50;99.90
5358;DHT22;2702;51.014;7.170;2022-08-19T11:16:24;24.50;99.90
5358;DHT22;2702;51.014;7.170;2022-08-19T11:18:53;24.70;99.90
5358;DHT22;2702;51.014;7.170;2022-08-19T11:21:22;24.40;99.90
5358;DHT22;2702;51.014;7.170;2022-08-19T11:23:51;24.80;99.90
5358;DHT22;2702;51.014;7.170;2022-08-19T11:26:18;25.10;99.90
5358;DHT22;2702;51.014;7.170;2022-08-19T11:28:45;25.50;99.90
5358;DHT22;2702;51.014;7.170;2022-08-19T11:31:15;25.40;99.90
5358;DHT22;2702;51.014;7.170;2022-08-19T11:33:41;25.40;99.90
5358;DHT22;2702;51.014;7.170;2022-08-19T11:36:08;25.60;99.90
5358;DHT22;2702;51.014;7.170;2022-08-19T11:38:35;25.70;99.90
5358;DHT22;2702;51.014;7.170;2022-08-19T11:41:07;26.10;99.90
5358;DHT22;2702;51.014;7.170;2022-08-19T11:43:36;26.40;99.90
5358;DHT22;2702;51.014;7.170;2022-08-19T11:46:06;26.30;99.90
5358;DHT22;2702;51.014;7.170;2022-08-19T11:48:33;25.80;99.90
5358;DHT22;2702;51.014;7.170;2022-08-19T11:51:04;25.60;99.90
5358;DHT22;2702;51.014;7.170;2022-08-19T11:53:32;26.10;99.90
5358;DHT22;2702;51.014;7.170;2022-08-19T11:55:58;26.40;99.90
5358;DHT22;2702;51.014;7.170;2022-08-19T11:58:24;26.20;99.90
5358;DHT22;2702;51.014;7.170;2022-08-19T12:00:51;25.30;99.90
5358;DHT22;2702;51.014;7.170;2022-08-19T12:03:17;25.00;99.90
5358;DHT22;2702;51.014;7.170;2022-08-19T12:05:45;24.90;99.90
5358;DHT22;2702;51.014;7.170;2022-08-19T12:08:12;25.10;99.90
5358;DHT22;2702;51.014;7.170;2022-08-19T12:10:42;25.10;99.90
5358;DHT22;2702;51.014;7.170;2022-08-19T12:13:09;25.30;99.90
5358;DHT22;2702;51.014;7.170;2022-08-19T12:15:39;25.60;99.90
5358;DHT22;2702;51.014;7.170;2022-08-19T12:18:07;25.80;99.90
5358;DHT22;2702;51.014;7.170;2022-08-19T12:20:35;26.00;99.90
5358;DHT22;2702;51.014;7.170;2022-08-19T12:23:03;26.20;99.90
5358;DHT22;2702;51.014;7.170;2022-08-19T12:25:29;26.00;99.90
5358;DHT22;2702;51.014;7.170;2022-08-19T12:27:56;25.90;99.90
5358;DHT22;2702;51.014;7.170;2022-08-19T12:30:22;25.90;99.90
5358;DHT22;2702;51.014;7.170;2022-08-19T12:32:48;26.20;99.90
5358;DHT22;2702;51.014;7.170;2022-08-19T12:35:14;26.40;99.90
5358;DHT22;2702;51.014;7.170;2022-08-19T12:37:40;26.70;99.90
5358;DHT22;2702;51.014;7.170;2022-08-19T12:40:08;26.50;99.90
5358;DHT22;2702;51.014;7.170;2022-08-19T12:42:37;26.40;99.90
5358;DHT22;2702;51.014;7.170;2022-08-19T12:45:10;26.90;99.90
5358;DHT22;2702;51.014;7.170;2022-08-19T12:47:37;26.80;99.90
5358;DHT22;2702;51.014;7.170;2022-08-19T12:50:04;26.70;99.90
5358;DHT22;2702;51.014;7.170;2022-08-19T12:52:32;26.60;99.90
5358;DHT22;2702;51.014;7.170;2022-08-19T12:54:58;26.80;99.90
5358;DHT22;2702;51.014;7.170;2022-08-19T12:57:26;26.80;99.90
5358;DHT22;2702;51.014;7.170;2022-08-19T12:59:53;27.00;99.90
5358;DHT22;2702;51.014;7.170;2022-08-19T13:02:19;27.10;99.90
5358;DHT22;2702;51.014;7.170;2022-08-19T13:04:45;26.80;99.90
5358;DHT22;2702;51.014;7.170;2022-08-19T13:07:12;27.00;99.90
5358;DHT22;2702;51.014;7.170;2022-08-19T13:09:37;27.00;99.90
5358;DHT22;2702;51.014;7.170;2022-08-19T13:12:06;26.70;99.90
5358;DHT22;2702;51.014;7.170;2022-08-19T13:14:34;26.50;99.90
5358;DHT22;2702;51.014;7.170;2022-08-19T13:17:00;26.50;99.90
5358;DHT22;2702;51.014;7.170;2022-08-19T13:19:26;26.70;99.90
5358;DHT22;2702;51.014;7.170;2022-08-19T13:21:52;26.80;99.90
5358;DHT22;2702;51.014;7.170;2022-08-19T13:24:21;26.90;99.90
5358;DHT22;2702;51.014;7.170;2022-08-19T13:26:47;27.20;99.90
5358;DHT22;2702;51.014;7.170;2022-08-19T13:29:13;27.50;99.90
5358;DHT22;2702;51.014;7.170;2022-08-19T13:31:58;27.40;99.90
5358;DHT22;2702;51.014;7.170;2022-08-19T13:34:42;27.20;99.90
5358;DHT22;2702;51.014;7.170;2022-08-19T13:37:08;27.30;99.90
5358;DHT22;2702;51.014;7.170;2022-08-19T13:39:35;27.20;99.90
5358;DHT22;2702;51.014;7.170;2022-08-19T13:42:02;26.90;99.90
5358;DHT22;2702;51.014;7.170;2022-08-19T13:44:29;26.90;99.90
5358;DHT22;2702;51.014;7.170;2022-08-19T13:47:01;26.90;99.90
5358;DHT22;2702;51.014;7.170;2022-08-19T13:49:31;26.90;99.90
5358;DHT22;2702;51.014;7.170;2022-08-19T13:51:57;27.20;99.90
5358;DHT22;2702;51.014;7.170;2022-08-19T13:54:23;27.20;99.90
5358;DHT22;2702;51.014;7.170;2022-08-19T13:56:49;27.40;99.90
5358;DHT22;2702;51.014;7.170;2022-08-19T13:59:15;27.60;99.90
5358;DHT22;2702;51.014;7.170;2022-08-19T14:01:42;27.40;99.90
5358;DHT22;2702;51.014;7.170;2022-08-19T14:04:08;27.30;99.90
5358;DHT22;2702;51.014;7.170;2022-08-19T14:06:34;27.10;99.90
5358;DHT22;2702;51.014;7.170;2022-08-19T14:09:00;27.20;99.90
5358;DHT22;2702;51.014;7.170;2022-08-19T14:11:28;27.50;99.90
5358;DHT22;2702;51.014;7.170;2022-08-19T14:13:54;27.70;99.90
5358;DHT22;2702;51.014;7.170;2022-08-19T14:16:20;27.90;99.90
5358;DHT22;2702;51.014;7.170;2022-08-19T14:18:47;27.80;99.90
5358;DHT22;2702;51.014;7.170;2022-08-19T14:21:23;28.10;99.90
5358;DHT22;2702;51.014;7.170;2022-08-19T14:23:51;27.60;99.90
5358;DHT22;2702;51.014;7.170;2022-08-19T14:26:19;27.30;99.90
5358;DHT22;2702;51.014;7.170;2022-08-19T14:28:45;27.30;99.90
5358;DHT22;2702;51.014;7.170;2022-08-19T14:31:13;27.10;99.90
5358;DHT22;2702;51.014;7.170;2022-08-19T14:33:42;27.30;99.90
5358;DHT22;2702;51.014;7.170;2022-08-19T14:36:08;27.10;99.90
5358;DHT22;2702;51.014;7.170;2022-08-19T14:38:33;27.20;99.90
5358;DHT22;2702;51.014;7.170;2022-08-19T14:41:16;27.30;99.90
5358;DHT22;2702;51.014;7.170;2022-08-19T14:43:50;27.50;99.90
5358;DHT22;2702;51.014;7.170;2022-08-19T14:46:22;27.50;99.90
5358;DHT22;2702;51.014;7.170;2022-08-19T14:48:49;27.70;99.90
5358;DHT22;2702;51.014;7.170;2022-08-19T14:51:15;27.70;99.90
5358;DHT22;2702;51.014;7.170;2022-08-19T14:53:42;27.60;99.90
5358;DHT22;2702;51.014;7.170;2022-08-19T14:56:12;26.80;99.90
5358;DHT22;2702;51.014;7.170;2022-08-19T14:58:40;26.60;99.90
5358;DHT22;2702;51.014;7.170;2022-08-19T15:01:07;26.80;99.90
5358;DHT22;2702;51.014;7.170;2022-08-19T15:03:34;26.70;99.90
5358;DHT22;2702;51.014;7.170;2022-08-19T15:06:02;26.70;99.90
5358;DHT22;2702;51.014;7.170;2022-08-19T15:08:30;26.50;99.90
5358;DHT22;2702;51.014;7.170;2022-08-19T15:10:58;26.70;99.90
5358;DHT22;2702;51.014;7.170;2022-08-19T15:13:25;26.80;99.90
5358;DHT22;2702;51.014;7.170;2022-08-19T15:15:52;26.90;99.90
5358;DHT22;2702;51.014;7.170;2022-08-19T15:18:18;27.10;99.90
5358;DHT22;2702;51.014;7.170;2022-08-19T15:20:47;27.20;99.90
5358;DHT22;2702;51.014;7.170;2022-08-19T15:23:15;27.60;99.90
5358;DHT22;2702;51.014;7.170;2022-08-19T15:25:41;28.00;99.90
5358;DHT22;2702;51.014;7.170;2022-08-19T15:28:08;27.80;99.90
5358;DHT22;2702;51.014;7.170;2022-08-19T15:30:38;28.10;99.90
5358;DHT22;2702;51.014;7.170;2022-08-19T15:33:05;28.10;99.90
5358;DHT22;2702;51.014;7.170;2022-08-19T15:35:31;28.20;99.90
5358;DHT22;2702;51.014;7.170;2022-08-19T15:37:57;28.50;99.90
5358;DHT22;2702;51.014;7.170;2022-08-19T15:40:26;28.20;99.90
5358;DHT22;2702;51.014;7.170;2022-08-19T15:42:52;28.20;99.90
5358;DHT22;2702;51.014;7.170;2022-08-19T15:45:20;27.90;99.90
5358;DHT22;2702;51.014;7.170;2022-08-19T15:47:47;27.90;99.90
5358;DHT22;2702;51.014;7.170;2022-08-19T15:50:17;28.00;99.90
5358;DHT22;2702;51.014;7.170;2022-08-19T15:52:53;27.90;99.90
5358;DHT22;2702;51.014;7.170;2022-08-19T15:55:23;27.70;99.90
5358;DHT22;2702;51.014;7.170;2022-08-19T15:57:49;27.40;99.90
5358;DHT22;2702;51.014;7.170;2022-08-19T16:00:34;26.90;99.90
5358;DHT22;2702;51.014;7.170;2022-08-19T16:03:18;26.70;99.90
5358;DHT22;2702;51.014;7.170;2022-08-19T16:06:03;26.70;99.90
5358;DHT22;2702;51.014;7.170;2022-08-19T16:08:48;26.80;99.90
5358;DHT22;2702;51.014;7.170;2022-08-19T16:11:18;26.40;99.90
5358;DHT22;2702;51.014;7.170;2022-08-19T16:13:48;26.40;99.90
5358;DHT22;2702;51.014;7.170;2022-08-19T16:16:20;26.50;99.90
5358;DHT22;2702;51.014;7.170;2022-08-19T16:18:47;26.50;99.90
5358;DHT22;2702;51.014;7.170;2022-08-19T16:21:14;26.50;99.90
5358;DHT22;2702;51.014;7.170;2022-08-19T16:23:45;26.30;99.90
5358;DHT22;2702;51.014;7.170;2022-08-19T16:26:13;26.20;99.90
5358;DHT22;2702;51.014;7.170;2022-08-19T16:28:42;26.10;99.90
5358;DHT22;2702;51.014;7.170;2022-08-19T16:31:09;26.10;99.90